createdAt,value
2022-09-26T00:00:00.884Z,9.64
2022-09-26T00:01:01.753Z,9.68
2022-09-26T00:02:01.242Z,9.70
2022-09-26T00:03:01.411Z,9.86
2022-09-26T00:04:01.585Z,10.01
2022-09-26T00:05:01.761Z,10.04
2022-09-26T00:06:01.925Z,10.19
2022-09-26T00:07:03.708Z,10.18
2022-09-26T00:08:02.325Z,10.26
2022-09-26T00:09:03.216Z,10.34
2022-09-26T00:10:02.600Z,10.44
2022-09-26T00:11:02.756Z,10.46
2022-09-26T00:12:02.908Z,10.55
2022-09-26T00:13:03.052Z,10.63
2022-09-26T00:14:03.246Z,10.60
2022-09-26T00:15:04.193Z,10.68
2022-09-26T00:16:03.609Z,10.71
2022-09-26T00:17:03.822Z,10.68
2022-09-26T00:18:04.694Z,10.71
2022-09-26T00:19:05.245Z,10.81
2022-09-26T00:20:04.419Z,10.74
2022-09-26T00:21:04.713Z,10.88
2022-09-26T00:22:04.735Z,10.86
2022-09-26T00:23:04.868Z,11.01
2022-09-26T00:24:05.004Z,11.03
2022-09-26T00:25:05.164Z,11.01
2022-09-26T00:26:05.709Z,10.95
2022-09-26T00:27:05.501Z,11.01
2022-09-26T00:28:05.649Z,11.10
2022-09-26T00:29:05.848Z,11.17
2022-09-26T00:30:06.041Z,11.06
2022-09-26T00:31:06.765Z,11.11
2022-09-26T00:32:06.388Z,11.25
2022-09-26T00:33:06.546Z,11.21
2022-09-26T00:34:06.696Z,11.21
2022-09-26T00:35:07.215Z,11.14
2022-09-26T00:36:07.213Z,11.24
2022-09-26T00:37:07.115Z,11.17
2022-09-26T00:38:07.256Z,11.16
2022-09-26T00:39:07.387Z,11.14
2022-09-26T00:40:07.533Z,11.16
2022-09-26T00:41:07.667Z,11.28
2022-09-26T00:42:08.820Z,11.17
2022-09-26T00:43:07.924Z,11.24
2022-09-26T00:44:08.053Z,11.20
2022-09-26T00:45:08.222Z,11.24
2022-09-26T00:46:08.430Z,11.21
2022-09-26T00:47:08.632Z,11.21
2022-09-26T00:48:08.774Z,11.20
2022-09-26T00:49:08.975Z,11.17
2022-09-26T00:50:09.124Z,11.13
2022-09-26T00:51:10.359Z,11.28
2022-09-26T00:52:09.513Z,11.27
2022-09-26T00:53:10.204Z,11.32
2022-09-26T00:54:09.889Z,11.36
2022-09-26T00:55:10.708Z,11.27
2022-09-26T00:56:10.224Z,11.29
2022-09-26T00:57:10.413Z,11.28
2022-09-26T00:58:10.564Z,11.35
2022-09-26T00:59:10.729Z,11.28
2022-09-26T01:00:10.880Z,11.32
2022-09-26T01:01:11.145Z,11.32
2022-09-26T01:02:11.373Z,11.32
2022-09-26T01:03:11.433Z,11.34
2022-09-26T01:04:11.570Z,11.29
2022-09-26T01:05:11.733Z,11.27
2022-09-26T01:06:11.890Z,11.19
2022-09-26T01:07:13.049Z,11.27
2022-09-26T01:08:12.162Z,11.14
2022-09-26T01:09:12.423Z,11.27
2022-09-26T01:10:13.210Z,11.21
2022-09-26T01:11:16.778Z,11.16
2022-09-26T01:12:14.223Z,11.21
2022-09-26T01:13:13.085Z,11.24
2022-09-26T01:14:13.257Z,11.21
2022-09-26T01:15:14.216Z,11.09
2022-09-26T01:16:14.269Z,11.09
2022-09-26T01:17:13.828Z,11.11
2022-09-26T01:18:13.978Z,11.06
2022-09-26T01:19:14.261Z,11.10
2022-09-26T01:20:14.331Z,11.03
2022-09-26T01:21:14.485Z,11.07
2022-09-26T01:22:14.636Z,11.02
2022-09-26T01:23:14.762Z,11.01
2022-09-26T01:24:14.914Z,11.01
2022-09-26T01:25:15.054Z,10.98
2022-09-26T01:26:15.200Z,11.01
2022-09-26T01:27:15.327Z,11.01
2022-09-26T01:28:16.214Z,10.96
2022-09-26T01:29:15.689Z,10.91
2022-09-26T01:30:16.226Z,10.92
2022-09-26T01:31:16.005Z,10.94
2022-09-26T01:32:16.719Z,10.91
2022-09-26T01:33:16.317Z,10.92
2022-09-26T01:34:17.217Z,10.91
2022-09-26T01:35:16.717Z,11.01
2022-09-26T01:36:16.829Z,10.86
2022-09-26T01:37:17.147Z,10.95
2022-09-26T01:38:18.212Z,10.98
2022-09-26T01:39:17.451Z,10.96
2022-09-26T01:40:17.666Z,10.96
2022-09-26T01:41:17.714Z,10.94
2022-09-26T01:42:17.843Z,10.98
2022-09-26T01:43:17.966Z,11.07
2022-09-26T01:44:18.720Z,10.95
2022-09-26T01:45:18.335Z,11.02
2022-09-26T01:46:18.553Z,11.02
2022-09-26T01:47:19.220Z,11.06
2022-09-26T01:48:18.739Z,11.06
2022-09-26T01:49:18.881Z,11.01
2022-09-26T01:50:19.048Z,10.98
2022-09-26T01:51:19.725Z,11.01
2022-09-26T01:52:19.431Z,10.99
2022-09-26T01:53:19.586Z,11.01
2022-09-26T01:54:19.727Z,10.96
2022-09-26T01:55:19.897Z,11.03
2022-09-26T01:56:20.052Z,11.02
2022-09-26T01:57:20.242Z,10.98
2022-09-26T01:58:20.394Z,11.09
2022-09-26T01:59:20.535Z,11.07
2022-09-26T02:00:20.697Z,10.99
2022-09-26T02:01:20.896Z,11.01
2022-09-26T02:02:21.152Z,11.02
2022-09-26T02:03:22.225Z,11.01
2022-09-26T02:04:21.481Z,10.98
2022-09-26T02:05:21.628Z,10.99
2022-09-26T02:06:22.726Z,10.98
2022-09-26T02:07:22.231Z,10.98
2022-09-26T02:08:22.232Z,10.92
2022-09-26T02:09:23.238Z,10.95
2022-09-26T02:10:22.514Z,10.99
2022-09-26T02:11:22.656Z,10.91
2022-09-26T02:12:22.823Z,10.94
2022-09-26T02:13:23.035Z,10.91
2022-09-26T02:14:23.197Z,10.91
2022-09-26T02:15:23.364Z,10.94
2022-09-26T02:16:23.558Z,10.94
2022-09-26T02:17:23.631Z,10.91
2022-09-26T02:18:23.787Z,10.89
2022-09-26T02:19:24.239Z,10.92
2022-09-26T02:20:24.121Z,10.84
2022-09-26T02:21:24.362Z,10.84
2022-09-26T02:22:24.481Z,10.86
2022-09-26T02:23:24.722Z,10.94
2022-09-26T02:24:24.984Z,10.92
2022-09-26T02:25:25.105Z,10.78
2022-09-26T02:26:25.245Z,10.80
2022-09-26T02:27:25.366Z,10.88
2022-09-26T02:28:25.552Z,10.81
2022-09-26T02:29:25.662Z,10.84
2022-09-26T02:30:25.793Z,10.77
2022-09-26T02:31:26.022Z,10.80
2022-09-26T02:32:26.169Z,10.70
2022-09-26T02:33:26.323Z,10.78
2022-09-26T02:34:26.443Z,10.78
2022-09-26T02:35:26.568Z,10.80
2022-09-26T02:36:27.231Z,10.80
2022-09-26T02:37:26.834Z,10.77
2022-09-26T02:38:27.051Z,10.77
2022-09-26T02:39:27.155Z,10.73
2022-09-26T02:40:27.764Z,10.73
2022-09-26T02:41:27.658Z,10.68
2022-09-26T02:42:27.792Z,10.73
2022-09-26T02:43:28.729Z,10.77
2022-09-26T02:44:28.731Z,10.71
2022-09-26T02:45:28.405Z,10.71
2022-09-26T02:46:28.580Z,10.70
2022-09-26T02:47:28.711Z,10.65
2022-09-26T02:48:28.886Z,10.77
2022-09-26T02:49:29.042Z,10.70
2022-09-26T02:50:29.209Z,10.66
2022-09-26T02:51:29.351Z,10.58
2022-09-26T02:52:29.491Z,10.62
2022-09-26T02:53:29.646Z,10.58
2022-09-26T02:54:30.735Z,10.53
2022-09-26T02:55:30.739Z,10.58
2022-09-26T02:56:30.128Z,10.58
2022-09-26T02:57:30.284Z,10.63
2022-09-26T02:58:30.473Z,10.60
2022-09-26T02:59:30.639Z,10.60
2022-09-26T03:00:30.783Z,10.62
2022-09-26T03:01:31.297Z,10.65
2022-09-26T03:02:32.737Z,10.62
2022-09-26T03:03:31.380Z,10.53
2022-09-26T03:04:31.607Z,10.55
2022-09-26T03:05:31.769Z,10.70
2022-09-26T03:06:31.925Z,10.66
2022-09-26T03:07:32.063Z,10.68
2022-09-26T03:08:32.221Z,10.68
2022-09-26T03:09:32.347Z,10.78
2022-09-26T03:10:33.598Z,10.73
2022-09-26T03:11:32.718Z,10.73
2022-09-26T03:12:32.841Z,10.76
2022-09-26T03:13:33.075Z,10.68
2022-09-26T03:14:33.333Z,10.58
2022-09-26T03:15:33.492Z,10.66
2022-09-26T03:16:33.651Z,10.62
2022-09-26T03:17:33.817Z,10.55
2022-09-26T03:18:34.742Z,10.60
2022-09-26T03:19:34.762Z,10.68
2022-09-26T03:20:34.279Z,10.56
2022-09-26T03:21:36.975Z,10.43
2022-09-26T03:22:35.637Z,10.56
2022-09-26T03:23:34.889Z,10.52
2022-09-26T03:24:35.041Z,10.52
2022-09-26T03:25:35.193Z,10.42
2022-09-26T03:26:35.316Z,10.56
2022-09-26T03:27:35.461Z,10.52
2022-09-26T03:28:38.012Z,10.44
2022-09-26T03:29:36.740Z,10.40
2022-09-26T03:30:36.744Z,10.37
2022-09-26T03:31:36.167Z,10.36
2022-09-26T03:32:36.747Z,10.28
2022-09-26T03:33:36.395Z,10.39
2022-09-26T03:34:37.247Z,10.32
2022-09-26T03:35:36.731Z,10.28
2022-09-26T03:36:37.744Z,10.34
2022-09-26T03:37:37.115Z,10.32
2022-09-26T03:38:37.254Z,10.32
2022-09-26T03:39:37.422Z,10.33
2022-09-26T03:40:37.662Z,10.40
2022-09-26T03:41:37.706Z,10.21
2022-09-26T03:42:37.858Z,10.28
2022-09-26T03:43:38.747Z,10.19
2022-09-26T03:44:38.160Z,10.14
2022-09-26T03:45:38.358Z,10.19
2022-09-26T03:46:40.154Z,10.17
2022-09-26T03:47:39.609Z,10.09
2022-09-26T03:48:38.722Z,10.21
2022-09-26T03:49:39.749Z,10.25
2022-09-26T03:50:38.998Z,10.21
2022-09-26T03:51:39.155Z,10.24
2022-09-26T03:52:39.314Z,10.24
2022-09-26T03:53:40.256Z,10.22
2022-09-26T03:54:39.623Z,10.24
2022-09-26T03:55:39.793Z,10.24
2022-09-26T03:56:40.010Z,10.21
2022-09-26T03:57:40.264Z,10.22
2022-09-26T03:58:40.385Z,10.34
2022-09-26T03:59:40.536Z,10.24
2022-09-26T04:00:40.778Z,10.25
2022-09-26T04:01:40.810Z,10.25
2022-09-26T04:02:41.294Z,10.22
2022-09-26T04:03:43.179Z,10.22
2022-09-26T04:04:42.421Z,10.25
2022-09-26T04:05:41.581Z,10.24
2022-09-26T04:06:41.720Z,10.32
2022-09-26T04:07:41.884Z,10.30
2022-09-26T04:08:42.036Z,10.36
2022-09-26T04:09:42.213Z,10.39
2022-09-26T04:10:43.285Z,10.37
2022-09-26T04:11:42.545Z,10.30
2022-09-26T04:12:42.714Z,10.34
2022-09-26T04:13:52.545Z,10.24
2022-09-26T04:14:44.996Z,10.40
2022-09-26T04:15:43.239Z,10.37
2022-09-26T04:16:43.416Z,10.43
2022-09-26T04:17:43.609Z,10.40
2022-09-26T04:18:44.751Z,10.26
2022-09-26T04:19:43.868Z,10.36
2022-09-26T04:20:44.048Z,10.32
2022-09-26T04:21:44.216Z,10.37
2022-09-26T04:22:45.261Z,10.32
2022-09-26T04:23:44.526Z,10.39
2022-09-26T04:24:44.702Z,10.40
2022-09-26T04:25:44.853Z,10.46
2022-09-26T04:26:45.761Z,10.47
2022-09-26T04:27:45.137Z,10.46
2022-09-26T04:28:45.325Z,10.39
2022-09-26T04:29:45.461Z,10.42
2022-09-26T04:30:46.262Z,10.37
2022-09-26T04:31:45.870Z,10.37
2022-09-26T04:32:45.969Z,10.42
2022-09-26T04:33:46.116Z,10.34
2022-09-26T04:34:46.759Z,10.30
2022-09-26T04:35:46.381Z,10.26
2022-09-26T04:36:47.527Z,10.26
2022-09-26T04:37:46.736Z,10.25
2022-09-26T04:38:47.760Z,10.34
2022-09-26T04:39:47.096Z,10.37
2022-09-26T04:40:47.829Z,10.40
2022-09-26T04:41:47.358Z,10.39
2022-09-26T04:42:47.484Z,10.30
2022-09-26T04:43:47.629Z,10.26
2022-09-26T04:44:47.776Z,10.25
2022-09-26T04:45:48.826Z,10.25
2022-09-26T04:46:48.217Z,10.21
2022-09-26T04:47:48.328Z,10.25
2022-09-26T04:48:49.262Z,10.30
2022-09-26T04:49:48.644Z,10.32
2022-09-26T04:50:48.796Z,10.21
2022-09-26T04:51:49.763Z,10.21
2022-09-26T04:52:49.131Z,10.24
2022-09-26T04:53:49.267Z,10.36
2022-09-26T04:54:49.388Z,10.40
2022-09-26T04:55:49.527Z,10.37
2022-09-26T04:56:49.667Z,10.40
2022-09-26T04:57:50.280Z,10.42
2022-09-26T04:58:50.049Z,10.39
2022-09-26T04:59:50.183Z,10.36
2022-09-26T05:00:51.393Z,10.33
2022-09-26T05:01:50.634Z,10.33
2022-09-26T05:02:50.768Z,10.28
2022-09-26T05:03:50.927Z,10.40
2022-09-26T05:04:51.070Z,10.34
2022-09-26T05:05:51.208Z,10.39
2022-09-26T05:06:51.386Z,10.39
2022-09-26T05:07:51.511Z,10.43
2022-09-26T05:08:51.753Z,10.40
2022-09-26T05:09:51.889Z,10.37
2022-09-26T05:10:52.019Z,10.30
2022-09-26T05:11:52.285Z,10.32
2022-09-26T05:12:52.300Z,10.37
2022-09-26T05:13:54.080Z,10.39
2022-09-26T05:14:53.802Z,10.37
2022-09-26T05:15:52.842Z,10.36
2022-09-26T05:16:53.105Z,10.42
2022-09-26T05:17:54.184Z,10.30
2022-09-26T05:18:53.325Z,10.39
2022-09-26T05:19:53.515Z,10.36
2022-09-26T05:20:53.695Z,10.42
2022-09-26T05:21:53.869Z,10.42
2022-09-26T05:22:54.017Z,10.55
2022-09-26T05:23:54.179Z,10.36
2022-09-26T05:24:54.323Z,10.44
2022-09-26T05:25:54.483Z,10.47
2022-09-26T05:26:54.666Z,10.51
2022-09-26T05:27:54.809Z,10.46
2022-09-26T05:28:55.777Z,10.44
2022-09-26T05:29:55.145Z,10.43
2022-09-26T05:30:55.292Z,10.42
2022-09-26T05:31:55.857Z,10.47
2022-09-26T05:32:56.272Z,10.40
2022-09-26T05:33:56.808Z,10.51
2022-09-26T05:34:55.924Z,10.53
2022-09-26T05:35:56.095Z,10.42
2022-09-26T05:36:56.254Z,10.44
2022-09-26T05:37:56.397Z,10.46
2022-09-26T05:38:56.579Z,10.51
2022-09-26T05:39:56.727Z,10.53
2022-09-26T05:40:57.026Z,10.55
2022-09-26T05:41:57.012Z,10.55
2022-09-26T05:42:57.153Z,10.42
2022-09-26T05:43:57.788Z,10.37
2022-09-26T05:44:58.278Z,10.46
2022-09-26T05:45:57.769Z,10.46
2022-09-26T05:46:58.812Z,10.47
2022-09-26T05:47:58.059Z,10.47
2022-09-26T05:48:58.776Z,10.55
2022-09-26T05:49:58.418Z,10.58
2022-09-26T05:50:58.789Z,10.62
2022-09-26T05:51:58.814Z,10.51
2022-09-26T05:52:59.293Z,10.51
2022-09-26T05:53:59.781Z,10.59
2022-09-26T05:54:59.271Z,10.59
2022-09-26T05:55:59.423Z,10.63
2022-09-26T05:56:59.573Z,10.62
2022-09-26T05:57:59.718Z,10.51
2022-09-26T05:58:59.885Z,10.58
2022-09-26T06:00:00.031Z,10.51
2022-09-26T06:01:00.818Z,10.56
2022-09-26T06:02:01.518Z,10.62
2022-09-26T06:03:00.553Z,10.62
2022-09-26T06:04:00.699Z,10.62
2022-09-26T06:05:00.843Z,10.44
2022-09-26T06:06:01.012Z,10.55
2022-09-26T06:07:01.175Z,10.70
2022-09-26T06:08:01.330Z,10.51
2022-09-26T06:09:01.500Z,10.59
2022-09-26T06:10:01.675Z,10.59
2022-09-26T06:11:01.840Z,10.66
2022-09-26T06:12:02.011Z,10.60
2022-09-26T06:13:02.167Z,10.52
2022-09-26T06:14:02.802Z,10.56
2022-09-26T06:15:02.456Z,10.65
2022-09-26T06:16:02.656Z,10.62
2022-09-26T06:17:02.817Z,10.62
2022-09-26T06:18:02.978Z,10.71
2022-09-26T06:19:03.180Z,10.70
2022-09-26T06:20:04.285Z,10.63
2022-09-26T06:21:04.289Z,10.68
2022-09-26T06:22:04.304Z,10.66
2022-09-26T06:23:03.821Z,10.78
2022-09-26T06:24:03.988Z,10.81
2022-09-26T06:25:04.150Z,10.92
2022-09-26T06:26:04.306Z,11.06
2022-09-26T06:27:04.449Z,11.07
2022-09-26T06:28:04.587Z,11.17
2022-09-26T06:29:04.748Z,11.17
2022-09-26T06:30:04.938Z,11.25
2022-09-26T06:31:05.105Z,11.28
2022-09-26T06:32:05.293Z,11.36
2022-09-26T06:33:05.466Z,11.53
2022-09-26T06:34:05.616Z,11.59
2022-09-26T06:35:06.759Z,11.52
2022-09-26T06:36:06.303Z,11.67
2022-09-26T06:37:06.057Z,11.82
2022-09-26T06:38:06.227Z,11.74
2022-09-26T06:39:06.416Z,11.83
2022-09-26T06:40:08.295Z,11.90
2022-09-26T06:41:06.774Z,12.06
2022-09-26T06:42:06.909Z,12.46
2022-09-26T06:43:07.049Z,12.37
2022-09-26T06:44:07.176Z,12.41
2022-09-26T06:45:07.338Z,12.60
2022-09-26T06:46:07.470Z,12.79
2022-09-26T06:47:07.630Z,12.95
2022-09-26T06:48:07.783Z,13.06
2022-09-26T06:49:08.027Z,13.33
2022-09-26T06:50:08.273Z,13.32
2022-09-26T06:51:09.294Z,13.58
2022-09-26T06:52:08.644Z,13.51
2022-09-26T06:53:13.443Z,13.71
2022-09-26T06:54:08.968Z,13.91
2022-09-26T06:55:09.094Z,13.80
2022-09-26T06:56:09.352Z,13.54
2022-09-26T06:57:14.198Z,13.83
2022-09-26T06:58:11.805Z,14.17
2022-09-26T06:59:10.028Z,13.70
2022-09-26T07:00:10.799Z,13.62
2022-09-26T07:01:10.376Z,13.55
2022-09-26T07:02:10.685Z,13.69
2022-09-26T07:03:10.689Z,13.98
2022-09-26T07:04:10.846Z,14.04
2022-09-26T07:05:10.976Z,14.19
2022-09-26T07:06:11.115Z,13.84
2022-09-26T07:07:11.270Z,13.77
2022-09-26T07:08:11.432Z,13.70
2022-09-26T07:09:12.734Z,13.62
2022-09-26T07:10:13.300Z,13.36
2022-09-26T07:11:34.762Z,13.15
2022-09-26T07:12:15.772Z,13.06
2022-09-26T07:13:13.809Z,12.97
2022-09-26T07:14:12.534Z,13.21
2022-09-26T07:15:13.300Z,13.22
2022-09-26T07:16:12.827Z,13.17
2022-09-26T07:17:12.991Z,13.00
2022-09-26T07:18:13.965Z,13.27
2022-09-26T07:19:14.425Z,13.21
2022-09-26T07:20:13.462Z,13.09
2022-09-26T07:21:14.309Z,12.75
2022-09-26T07:22:13.819Z,12.60
2022-09-26T07:23:13.951Z,12.67
2022-09-26T07:24:14.141Z,12.71
2022-09-26T07:25:14.209Z,12.66
2022-09-26T07:26:14.342Z,12.70
2022-09-26T07:27:14.839Z,12.66
2022-09-26T07:28:14.709Z,12.70
2022-09-26T07:29:16.020Z,12.30
2022-09-26T07:30:15.096Z,12.33
2022-09-26T07:31:15.286Z,12.42
2022-09-26T07:32:15.824Z,12.77
2022-09-26T07:33:15.617Z,12.69
2022-09-26T07:34:18.268Z,12.59
2022-09-26T07:35:17.819Z,12.59
2022-09-26T07:36:16.809Z,12.48
2022-09-26T07:37:16.347Z,12.51
2022-09-26T07:38:16.604Z,12.46
2022-09-26T07:39:16.902Z,12.41
2022-09-26T07:40:16.920Z,12.24
2022-09-26T07:41:17.071Z,12.23
2022-09-26T07:42:17.242Z,12.06
2022-09-26T07:43:24.148Z,11.96
2022-09-26T07:45:02.287Z,12.05
2022-09-26T07:45:29.468Z,12.06
2022-09-26T07:46:19.992Z,11.96
2022-09-26T07:47:18.108Z,12.05
2022-09-26T07:48:18.213Z,12.04
2022-09-26T07:49:19.403Z,11.97
2022-09-26T07:50:18.498Z,12.12
2022-09-26T07:51:19.313Z,12.20
2022-09-26T07:52:19.310Z,12.20
2022-09-26T07:53:18.952Z,12.34
2022-09-26T07:54:19.102Z,12.34
2022-09-26T07:55:19.809Z,12.29
2022-09-26T07:56:20.312Z,12.21
2022-09-26T07:57:20.317Z,12.31
2022-09-26T07:58:19.797Z,12.34
2022-09-26T07:59:19.935Z,12.34
2022-09-26T08:00:20.088Z,12.34
2022-09-26T08:01:20.278Z,12.46
2022-09-26T08:02:20.636Z,12.45
2022-09-26T08:03:20.714Z,12.49
2022-09-26T08:04:20.755Z,12.46
2022-09-26T08:05:20.899Z,12.46
2022-09-26T08:06:21.074Z,12.48
2022-09-26T08:07:21.182Z,12.45
2022-09-26T08:08:21.814Z,12.46
2022-09-26T08:09:21.427Z,12.54
2022-09-26T08:10:21.779Z,12.45
2022-09-26T08:11:22.874Z,12.49
2022-09-26T08:12:22.090Z,12.56
2022-09-26T08:13:22.274Z,12.52
2022-09-26T08:14:22.436Z,12.49
2022-09-26T08:15:22.608Z,12.46
2022-09-26T08:16:23.539Z,12.62
2022-09-26T08:17:23.825Z,12.54
2022-09-26T08:18:23.201Z,12.46
2022-09-26T08:19:23.383Z,12.39
2022-09-26T08:20:28.515Z,12.38
2022-09-26T08:21:24.662Z,12.48
2022-09-26T08:22:23.799Z,12.38
2022-09-26T08:23:23.980Z,12.46
2022-09-26T08:24:24.824Z,12.48
2022-09-26T08:25:24.825Z,12.45
2022-09-26T08:26:24.561Z,12.46
2022-09-26T08:27:25.325Z,12.52
2022-09-26T08:28:25.355Z,12.59
2022-09-26T08:29:25.094Z,12.60
2022-09-26T08:30:25.349Z,12.56
2022-09-26T08:31:26.581Z,12.51
2022-09-26T08:32:26.634Z,12.56
2022-09-26T08:33:25.857Z,12.57
2022-09-26T08:34:26.039Z,12.52
2022-09-26T08:35:26.233Z,12.59
2022-09-26T08:36:26.379Z,12.59
2022-09-26T08:37:26.509Z,12.52
2022-09-26T08:38:27.329Z,12.45
2022-09-26T08:39:31.240Z,12.42
2022-09-26T08:40:29.088Z,12.45
2022-09-26T08:41:27.133Z,12.31
2022-09-26T08:42:27.255Z,12.33
2022-09-26T08:43:27.380Z,12.27
2022-09-26T08:44:28.329Z,12.19
2022-09-26T08:45:27.847Z,12.24
2022-09-26T08:46:27.933Z,12.26
2022-09-26T08:47:28.830Z,12.16
2022-09-26T08:48:28.186Z,12.19
2022-09-26T08:49:28.336Z,12.08
2022-09-26T08:50:28.520Z,12.09
2022-09-26T08:51:29.475Z,12.05
2022-09-26T08:52:29.869Z,12.06
2022-09-26T08:53:28.999Z,12.08
2022-09-26T08:54:29.836Z,12.09
2022-09-26T08:55:29.842Z,12.08
2022-09-26T08:56:29.499Z,11.97
2022-09-26T08:57:30.329Z,12.02
2022-09-26T08:58:29.839Z,11.94
2022-09-26T08:59:30.026Z,11.97
2022-09-26T09:00:30.182Z,11.97
2022-09-26T09:01:30.453Z,11.96
2022-09-26T09:02:30.615Z,11.90
2022-09-26T09:03:30.737Z,11.82
2022-09-26T09:04:30.907Z,11.78
2022-09-26T09:05:31.076Z,11.74
2022-09-26T09:06:31.242Z,11.80
2022-09-26T09:07:31.430Z,11.75
2022-09-26T09:08:31.547Z,11.85
2022-09-26T09:09:31.711Z,11.90
2022-09-26T09:10:31.878Z,11.86
2022-09-26T09:11:32.033Z,11.86
2022-09-26T09:12:32.558Z,11.78
2022-09-26T09:13:33.848Z,11.80
2022-09-26T09:14:33.347Z,11.78
2022-09-26T09:15:32.725Z,11.67
2022-09-26T09:16:32.982Z,11.52
2022-09-26T09:17:33.106Z,11.64
2022-09-26T09:18:34.304Z,11.62
2022-09-26T09:19:34.332Z,11.56
2022-09-26T09:20:34.334Z,11.70
2022-09-26T09:21:38.028Z,11.59
2022-09-26T09:22:34.899Z,11.80
2022-09-26T09:23:34.835Z,11.70
2022-09-26T09:24:34.230Z,11.61
2022-09-26T09:25:34.423Z,11.57
2022-09-26T09:27:52.722Z,11.61
2022-09-26T09:28:37.041Z,11.59
2022-09-26T09:29:35.269Z,11.59
2022-09-26T09:30:35.444Z,11.57
2022-09-26T09:31:35.642Z,11.47
2022-09-26T09:32:35.823Z,11.43
2022-09-26T09:33:35.975Z,11.38
2022-09-26T09:34:36.125Z,11.38
2022-09-26T09:35:36.277Z,11.41
2022-09-26T09:36:36.426Z,11.38
2022-09-26T09:37:36.546Z,11.47
2022-09-26T09:38:37.347Z,11.43
2022-09-26T09:39:37.851Z,11.43
2022-09-26T09:40:37.162Z,11.57
2022-09-26T09:41:37.358Z,11.50
2022-09-26T09:42:37.348Z,11.52
2022-09-26T09:43:37.602Z,11.65
2022-09-26T09:44:37.731Z,11.47
2022-09-26T09:45:37.856Z,11.53
2022-09-26T09:46:38.053Z,11.47
2022-09-26T09:47:38.367Z,11.64
2022-09-26T09:48:38.388Z,11.54
2022-09-26T09:49:39.352Z,11.52
2022-09-26T09:50:38.727Z,11.54
2022-09-26T09:51:39.738Z,11.47
2022-09-26T09:52:39.072Z,11.43
2022-09-26T09:53:39.851Z,11.47
2022-09-26T09:54:39.338Z,11.52
2022-09-26T09:55:39.498Z,11.52
2022-09-26T09:56:40.348Z,11.59
2022-09-26T09:57:39.874Z,11.57
2022-09-26T09:58:40.868Z,11.59
2022-09-26T09:59:40.222Z,11.70
2022-09-26T10:00:40.372Z,11.72
2022-09-26T10:01:40.507Z,11.61
2022-09-26T10:02:40.916Z,11.57
2022-09-26T10:03:40.834Z,11.53
2022-09-26T10:04:40.952Z,11.54
2022-09-26T10:05:41.082Z,11.54
2022-09-26T10:06:46.068Z,11.52
2022-09-26T10:07:42.476Z,11.43
2022-09-26T10:08:41.575Z,11.54
2022-09-26T10:09:41.718Z,11.59
2022-09-26T10:10:41.859Z,11.57
2022-09-26T10:11:42.849Z,11.67
2022-09-26T10:12:42.363Z,11.64
2022-09-26T10:13:42.371Z,11.68
2022-09-26T10:14:42.537Z,11.77
2022-09-26T10:15:42.709Z,11.80
2022-09-26T10:16:42.875Z,11.89
2022-09-26T10:17:51.981Z,11.99
2022-09-26T10:18:44.145Z,11.83
2022-09-26T10:19:44.357Z,11.89
2022-09-26T10:20:43.613Z,11.96
2022-09-26T10:21:43.733Z,12.05
2022-09-26T10:22:43.865Z,12.11
2022-09-26T10:23:44.852Z,12.24
2022-09-26T10:24:44.224Z,12.19
2022-09-26T10:25:44.396Z,12.31
2022-09-26T10:26:44.537Z,12.19
2022-09-26T10:27:45.374Z,12.23
2022-09-26T10:28:44.990Z,12.15
2022-09-26T10:29:45.055Z,12.09
2022-09-26T10:30:45.258Z,11.97
2022-09-26T10:31:45.339Z,11.90
2022-09-26T10:32:45.517Z,11.96
2022-09-26T10:33:45.671Z,11.99
2022-09-26T10:34:45.825Z,12.11
2022-09-26T10:35:46.029Z,12.11
2022-09-26T10:36:46.195Z,11.97
2022-09-26T10:37:47.367Z,11.99
2022-09-26T10:38:46.487Z,11.97
2022-09-26T10:39:46.685Z,12.04
2022-09-26T10:40:46.937Z,12.11
2022-09-26T10:41:47.171Z,12.13
2022-09-26T10:42:47.253Z,12.21
2022-09-26T10:43:48.358Z,12.21
2022-09-26T10:44:48.356Z,12.24
2022-09-26T10:45:47.888Z,12.20
2022-09-26T10:46:48.018Z,12.13
2022-09-26T10:47:48.067Z,12.15
2022-09-26T10:48:48.543Z,12.15
2022-09-26T10:49:49.362Z,12.04
2022-09-26T10:50:48.647Z,11.96
2022-09-26T10:51:48.794Z,11.90
2022-09-26T10:52:48.951Z,11.94
2022-09-26T10:53:49.116Z,12.05
2022-09-26T10:54:49.302Z,12.04
2022-09-26T10:55:49.468Z,11.99
2022-09-26T10:56:49.658Z,11.96
2022-09-26T10:57:49.859Z,11.94
2022-09-26T10:58:50.069Z,12.02
2022-09-26T10:59:50.254Z,12.08
2022-09-26T11:00:51.363Z,12.08
2022-09-26T11:01:50.662Z,11.99
2022-09-26T11:02:50.779Z,11.93
2022-09-26T11:03:51.021Z,12.06
2022-09-26T11:04:51.107Z,11.93
2022-09-26T11:05:51.277Z,11.86
2022-09-26T11:06:52.371Z,11.94
2022-09-26T11:07:51.611Z,11.90
2022-09-26T11:08:51.875Z,11.99
2022-09-26T11:09:51.885Z,11.90
2022-09-26T11:10:52.876Z,11.80
2022-09-26T11:11:52.244Z,11.97
2022-09-26T11:12:52.400Z,11.94
2022-09-26T11:13:52.542Z,12.02
2022-09-26T11:14:52.664Z,12.12
2022-09-26T11:15:52.895Z,11.97
2022-09-26T11:16:53.886Z,12.06
2022-09-26T11:17:53.117Z,11.85
2022-09-26T11:18:53.378Z,11.97
2022-09-26T11:19:55.012Z,11.89
2022-09-26T11:20:54.701Z,11.96
2022-09-26T11:21:54.870Z,11.99
2022-09-26T11:22:54.110Z,11.74
2022-09-26T11:23:54.281Z,11.82
2022-09-26T11:24:54.435Z,11.82
2022-09-26T11:25:57.933Z,11.82
2022-09-26T11:26:55.752Z,11.94
2022-09-26T11:27:54.984Z,11.97
2022-09-26T11:28:55.401Z,11.96
2022-09-26T11:29:55.258Z,11.94
2022-09-26T11:30:56.407Z,12.04
2022-09-26T11:32:00.139Z,12.02
2022-09-26T11:32:56.712Z,12.13
2022-09-26T11:33:55.965Z,12.09
2022-09-26T11:34:56.113Z,12.01
2022-09-26T11:35:56.263Z,12.02
2022-09-26T11:36:56.402Z,12.06
2022-09-26T11:37:56.576Z,12.05
2022-09-26T11:38:56.738Z,11.99
2022-09-26T11:39:57.873Z,11.97
2022-09-26T11:40:57.243Z,12.02
2022-09-26T11:41:57.296Z,12.06
2022-09-26T11:42:57.452Z,12.06
2022-09-26T11:43:57.603Z,11.99
2022-09-26T11:44:58.749Z,11.97
2022-09-26T11:45:58.431Z,12.01
2022-09-26T11:46:58.079Z,11.97
2022-09-26T11:47:58.222Z,11.94
2022-09-26T11:48:58.397Z,11.86
2022-09-26T11:49:58.542Z,12.05
2022-09-26T11:50:58.718Z,12.02
2022-09-26T11:51:58.899Z,11.89
2022-09-26T11:52:59.050Z,12.01
2022-09-26T11:53:59.198Z,12.01
2022-09-26T11:54:59.376Z,11.93
2022-09-26T11:55:59.504Z,12.11
2022-09-26T11:56:59.653Z,12.13
2022-09-26T11:58:03.232Z,12.04
2022-09-26T11:59:00.878Z,12.08
2022-09-26T12:00:00.156Z,12.04
2022-09-26T12:01:00.895Z,12.11
2022-09-26T12:02:00.558Z,12.12
2022-09-26T12:03:00.884Z,12.09
2022-09-26T12:04:01.070Z,12.04
2022-09-26T12:05:01.903Z,12.12
2022-09-26T12:06:01.287Z,11.96
2022-09-26T12:07:02.381Z,11.86
2022-09-26T12:08:02.386Z,11.77
2022-09-26T12:09:01.771Z,11.75
2022-09-26T12:10:01.948Z,11.74
2022-09-26T12:11:02.118Z,11.78
2022-09-26T12:12:02.279Z,11.80
2022-09-26T12:13:03.384Z,11.87
2022-09-26T12:14:02.625Z,11.82
2022-09-26T12:15:02.769Z,11.82
2022-09-26T12:16:03.007Z,11.77
2022-09-26T12:17:03.098Z,11.77
2022-09-26T12:18:03.271Z,11.74
2022-09-26T12:19:04.387Z,11.97
2022-09-26T12:20:03.638Z,11.90
2022-09-26T12:21:04.385Z,11.90
2022-09-26T12:22:04.053Z,11.90
2022-09-26T12:23:04.887Z,11.86
2022-09-26T12:24:04.403Z,11.97
2022-09-26T12:25:05.385Z,12.05
2022-09-26T12:26:04.798Z,11.99
2022-09-26T12:27:04.955Z,12.05
2022-09-26T12:28:05.117Z,12.15
2022-09-26T12:29:05.276Z,12.15
2022-09-26T12:30:06.396Z,12.19
2022-09-26T12:31:05.984Z,12.31
2022-09-26T12:32:05.800Z,12.49
2022-09-26T12:33:06.886Z,12.48
2022-09-26T12:34:06.185Z,12.48
2022-09-26T12:35:06.363Z,12.60
2022-09-26T12:36:06.552Z,12.69
2022-09-26T12:37:06.716Z,12.71
2022-09-26T12:38:06.846Z,12.78
2022-09-26T12:39:07.073Z,12.67
2022-09-26T12:40:07.132Z,12.48
2022-09-26T12:41:07.889Z,12.49
2022-09-26T12:42:07.541Z,12.46
2022-09-26T12:43:08.389Z,12.51
2022-09-26T12:44:07.934Z,12.57
2022-09-26T12:45:08.076Z,12.48
2022-09-26T12:46:08.338Z,12.56
2022-09-26T12:47:08.452Z,12.52
2022-09-26T12:48:08.633Z,12.59
2022-09-26T12:49:08.802Z,12.49
2022-09-26T12:50:09.927Z,12.56
2022-09-26T12:51:09.248Z,12.52
2022-09-26T12:52:09.417Z,12.54
2022-09-26T12:53:09.609Z,12.59
2022-09-26T12:54:09.846Z,12.57
2022-09-26T12:55:10.020Z,12.70